sensor_id;sensor_type;location;lat;lon;timestamp;temperature;humidity
17954;DHT22;9102;53.548;9.926;2023-09-07T00:01:31;20.00;99.90
17954;DHT22;9102;53.548;9.926;2023-09-07T00:03:57;20.00;99.90
17954;DHT22;9102;53.548;9.926;2023-09-07T00:06:24;20.00;99.90
17954;DHT22;9102;53.548;9.926;2023-09-07T00:08:52;19.90;99.90
17954;DHT22;9102;53.548;9.926;2023-09-07T00:11:18;19.90;99.90
17954;DHT22;9102;53.548;9.926;2023-09-07T00:13:45;19.80;99.90
17954;DHT22;9102;53.548;9.926;2023-09-07T00:16:12;19.80;99.90
17954;DHT22;9102;53.548;9.926;2023-09-07T00:18:40;19.90;99.90
17954;DHT22;9102;53.548;9.926;2023-09-07T00:21:07;19.80;99.90
17954;DHT22;9102;53.548;9.926;2023-09-07T00:23:34;19.80;99.90
17954;DHT22;9102;53.548;9.926;2023-09-07T00:26:01;19.70;99.90
17954;DHT22;9102;53.548;9.926;2023-09-07T00:28:27;19.70;99.90
17954;DHT22;9102;53.548;9.926;2023-09-07T00:30:54;19.70;99.90
17954;DHT22;9102;53.548;9.926;2023-09-07T00:33:21;19.60;99.90
17954;DHT22;9102;53.548;9.926;2023-09-07T00:35:49;19.60;99.90
17954;DHT22;9102;53.548;9.926;2023-09-07T00:38:16;19.60;99.90
17954;DHT22;9102;53.548;9.926;2023-09-07T00:40:43;19.70;99.90
17954;DHT22;9102;53.548;9.926;2023-09-07T00:43:10;19.60;99.90
17954;DHT22;9102;53.548;9.926;2023-09-07T00:45:37;19.60;99.90
17954;DHT22;9102;53.548;9.926;2023-09-07T00:48:05;19.50;99.90
17954;DHT22;9102;53.548;9.926;2023-09-07T00:50:32;19.50;99.90
17954;DHT22;9102;53.548;9.926;2023-09-07T00:53:01;19.50;99.90
17954;DHT22;9102;53.548;9.926;2023-09-07T00:55:29;19.40;99.90
17954;DHT22;9102;53.548;9.926;2023-09-07T00:57:58;19.40;99.90
17954;DHT22;9102;53.548;9.926;2023-09-07T01:00:25;19.40;99.90
17954;DHT22;9102;53.548;9.926;2023-09-07T01:02:52;19.40;99.90
17954;DHT22;9102;53.548;9.926;2023-09-07T01:05:21;19.30;99.90
17954;DHT22;9102;53.548;9.926;2023-09-07T01:07:52;19.30;99.90
17954;DHT22;9102;53.548;9.926;2023-09-07T01:10:21;19.30;99.90
17954;DHT22;9102;53.548;9.926;2023-09-07T01:12:48;19.20;99.90
17954;DHT22;9102;53.548;9.926;2023-09-07T01:15:15;19.20;99.90
17954;DHT22;9102;53.548;9.926;2023-09-07T01:17:43;19.20;99.90
17954;DHT22;9102;53.548;9.926;2023-09-07T01:20:13;19.30;99.90
17954;DHT22;9102;53.548;9.926;2023-09-07T01:22:43;19.30;99.90
17954;DHT22;9102;53.548;9.926;2023-09-07T01:25:11;19.20;99.90
17954;DHT22;9102;53.548;9.926;2023-09-07T01:27:38;19.30;99.90
17954;DHT22;9102;53.548;9.926;2023-09-07T01:30:06;19.30;99.90
17954;DHT22;9102;53.548;9.926;2023-09-07T01:32:34;19.30;99.90
17954;DHT22;9102;53.548;9.926;2023-09-07T01:35:01;19.20;99.90
17954;DHT22;9102;53.548;9.926;2023-09-07T01:37:31;19.20;99.90
17954;DHT22;9102;53.548;9.926;2023-09-07T01:39:59;19.20;99.90
17954;DHT22;9102;53.548;9.926;2023-09-07T01:42:26;19.20;99.90
17954;DHT22;9102;53.548;9.926;2023-09-07T01:44:53;19.20;99.90
17954;DHT22;9102;53.548;9.926;2023-09-07T01:47:20;19.20;99.90
17954;DHT22;9102;53.548;9.926;2023-09-07T01:49:46;19.10;99.90
17954;DHT22;9102;53.548;9.926;2023-09-07T01:52:13;19.10;99.90
17954;DHT22;9102;53.548;9.926;2023-09-07T01:54:40;19.10;99.90
17954;DHT22;9102;53.548;9.926;2023-09-07T01:57:08;19.00;99.90
17954;DHT22;9102;53.548;9.926;2023-09-07T01:59:35;19.10;99.90
17954;DHT22;9102;53.548;9.926;2023-09-07T02:02:01;19.00;99.90
17954;DHT22;9102;53.548;9.926;2023-09-07T02:04:28;19.00;99.90
17954;DHT22;9102;53.548;9.926;2023-09-07T02:06:55;19.00;99.90
17954;DHT22;9102;53.548;9.926;2023-09-07T02:09:22;19.00;99.90
17954;DHT22;9102;53.548;9.926;2023-09-07T02:11:49;18.90;99.90
17954;DHT22;9102;53.548;9.926;2023-09-07T02:14:17;18.90;99.90
17954;DHT22;9102;53.548;9.926;2023-09-07T02:16:43;18.90;99.90
17954;DHT22;9102;53.548;9.926;2023-09-07T02:19:10;18.80;99.90
17954;DHT22;9102;53.548;9.926;2023-09-07T02:21:37;18.90;99.90
17954;DHT22;9102;53.548;9.926;2023-09-07T02:24:04;18.80;99.90
17954;DHT22;9102;53.548;9.926;2023-09-07T02:26:31;18.80;99.90
17954;DHT22;9102;53.548;9.926;2023-09-07T02:28:58;18.80;99.90
17954;DHT22;9102;53.548;9.926;2023-09-07T02:31:26;18.90;99.90
17954;DHT22;9102;53.548;9.926;2023-09-07T02:33:53;18.90;99.90
17954;DHT22;9102;53.548;9.926;2023-09-07T02:36:19;18.80;99.90
17954;DHT22;9102;53.548;9.926;2023-09-07T02:38:46;18.80;99.90
17954;DHT22;9102;53.548;9.926;2023-09-07T02:41:13;18.80;99.90
17954;DHT22;9102;53.548;9.926;2023-09-07T02:43:41;18.80;99.90
17954;DHT22;9102;53.548;9.926;2023-09-07T02:46:07;18.70;99.90
17954;DHT22;9102;53.548;9.926;2023-09-07T02:48:36;18.70;99.90
17954;DHT22;9102;53.548;9.926;2023-09-07T02:51:02;18.70;99.90
17954;DHT22;9102;53.548;9.926;2023-09-07T02:53:29;18.60;99.90
17954;DHT22;9102;53.548;9.926;2023-09-07T02:55:56;18.60;99.90
17954;DHT22;9102;53.548;9.926;2023-09-07T02:58:23;18.60;99.90
17954;DHT22;9102;53.548;9.926;2023-09-07T03:00:50;18.60;99.90
17954;DHT22;9102;53.548;9.926;2023-09-07T03:03:18;18.60;99.90
17954;DHT22;9102;53.548;9.926;2023-09-07T03:05:46;18.60;99.90
17954;DHT22;9102;53.548;9.926;2023-09-07T03:08:13;18.60;99.90
17954;DHT22;9102;53.548;9.926;2023-09-07T03:10:39;18.60;99.90
17954;DHT22;9102;53.548;9.926;2023-09-07T03:13:07;18.60;99.90
17954;DHT22;9102;53.548;9.926;2023-09-07T03:15:34;18.50;99.90
17954;DHT22;9102;53.548;9.926;2023-09-07T03:18:01;18.50;99.90
17954;DHT22;9102;53.548;9.926;2023-09-07T03:20:28;18.50;99.90
17954;DHT22;9102;53.548;9.926;2023-09-07T03:22:56;18.50;99.90
17954;DHT22;9102;53.548;9.926;2023-09-07T03:25:23;18.50;99.90
17954;DHT22;9102;53.548;9.926;2023-09-07T03:27:50;18.40;99.90
17954;DHT22;9102;53.548;9.926;2023-09-07T03:30:16;18.40;99.90
17954;DHT22;9102;53.548;9.926;2023-09-07T03:32:43;18.40;99.90
17954;DHT22;9102;53.548;9.926;2023-09-07T03:35:11;18.30;99.90
17954;DHT22;9102;53.548;9.926;2023-09-07T03:37:38;18.40;99.90
17954;DHT22;9102;53.548;9.926;2023-09-07T03:40:08;18.40;99.90
17954;DHT22;9102;53.548;9.926;2023-09-07T03:42:35;18.40;99.90
17954;DHT22;9102;53.548;9.926;2023-09-07T03:45:03;18.40;99.90
17954;DHT22;9102;53.548;9.926;2023-09-07T03:47:30;18.30;99.90
17954;DHT22;9102;53.548;9.926;2023-09-07T03:49:57;18.20;99.90
17954;DHT22;9102;53.548;9.926;2023-09-07T03:52:24;18.20;99.90
17954;DHT22;9102;53.548;9.926;2023-09-07T03:54:53;18.20;99.90
17954;DHT22;9102;53.548;9.926;2023-09-07T03:57:22;18.30;99.90
17954;DHT22;9102;53.548;9.926;2023-09-07T03:59:48;18.20;99.90
17954;DHT22;9102;53.548;9.926;2023-09-07T04:02:15;18.20;99.90
17954;DHT22;9102;53.548;9.926;2023-09-07T04:04:43;18.20;99.90
17954;DHT22;9102;53.548;9.926;2023-09-07T04:07:10;18.10;99.90
17954;DHT22;9102;53.548;9.926;2023-09-07T04:09:37;18.10;99.90
17954;DHT22;9102;53.548;9.926;2023-09-07T04:12:04;18.10;99.90
17954;DHT22;9102;53.548;9.926;2023-09-07T04:14:33;18.10;99.90
17954;DHT22;9102;53.548;9.926;2023-09-07T04:17:00;18.00;99.90
17954;DHT22;9102;53.548;9.926;2023-09-07T04:19:27;18.00;99.90
17954;DHT22;9102;53.548;9.926;2023-09-07T04:21:54;18.10;99.90
17954;DHT22;9102;53.548;9.926;2023-09-07T04:24:21;18.10;99.90
17954;DHT22;9102;53.548;9.926;2023-09-07T04:26:48;18.00;99.90
17954;DHT22;9102;53.548;9.926;2023-09-07T04:29:15;18.10;99.90
17954;DHT22;9102;53.548;9.926;2023-09-07T04:31:43;18.10;99.90
17954;DHT22;9102;53.548;9.926;2023-09-07T04:34:10;18.10;99.90
17954;DHT22;9102;53.548;9.926;2023-09-07T04:36:37;18.10;99.90
17954;DHT22;9102;53.548;9.926;2023-09-07T04:39:04;18.10;99.90
17954;DHT22;9102;53.548;9.926;2023-09-07T04:41:30;18.10;99.90
17954;DHT22;9102;53.548;9.926;2023-09-07T04:43:57;18.10;99.90
17954;DHT22;9102;53.548;9.926;2023-09-07T04:46:24;18.20;99.90
17954;DHT22;9102;53.548;9.926;2023-09-07T04:48:52;18.20;99.90
17954;DHT22;9102;53.548;9.926;2023-09-07T04:51:19;18.20;99.90
17954;DHT22;9102;53.548;9.926;2023-09-07T04:53:47;18.20;99.90
17954;DHT22;9102;53.548;9.926;2023-09-07T04:56:14;18.10;99.90
17954;DHT22;9102;53.548;9.926;2023-09-07T04:58:42;18.10;99.90
17954;DHT22;9102;53.548;9.926;2023-09-07T05:01:11;18.10;99.90
17954;DHT22;9102;53.548;9.926;2023-09-07T05:03:39;18.20;99.90
17954;DHT22;9102;53.548;9.926;2023-09-07T05:06:08;18.10;99.90
17954;DHT22;9102;53.548;9.926;2023-09-07T05:08:34;18.10;99.90
17954;DHT22;9102;53.548;9.926;2023-09-07T05:11:02;18.20;99.90
17954;DHT22;9102;53.548;9.926;2023-09-07T05:13:30;18.20;99.90
17954;DHT22;9102;53.548;9.926;2023-09-07T05:15:59;18.20;99.90
17954;DHT22;9102;53.548;9.926;2023-09-07T05:18:26;18.20;99.90
17954;DHT22;9102;53.548;9.926;2023-09-07T05:20:53;18.30;99.90
17954;DHT22;9102;53.548;9.926;2023-09-07T05:23:22;18.40;99.90
17954;DHT22;9102;53.548;9.926;2023-09-07T05:25:52;18.40;99.90
17954;DHT22;9102;53.548;9.926;2023-09-07T05:28:21;18.50;99.90
17954;DHT22;9102;53.548;9.926;2023-09-07T05:30:48;18.50;99.90
17954;DHT22;9102;53.548;9.926;2023-09-07T05:33:16;18.50;99.90
17954;DHT22;9102;53.548;9.926;2023-09-07T05:35:44;18.60;99.90
17954;DHT22;9102;53.548;9.926;2023-09-07T05:38:12;18.60;99.90
17954;DHT22;9102;53.548;9.926;2023-09-07T05:40:41;18.60;99.90
17954;DHT22;9102;53.548;9.926;2023-09-07T05:43:09;18.70;99.90
17954;DHT22;9102;53.548;9.926;2023-09-07T05:45:39;18.70;99.90
17954;DHT22;9102;53.548;9.926;2023-09-07T05:48:07;18.70;99.90
17954;DHT22;9102;53.548;9.926;2023-09-07T05:50:35;18.70;99.90
17954;DHT22;9102;53.548;9.926;2023-09-07T05:53:03;18.80;99.90
17954;DHT22;9102;53.548;9.926;2023-09-07T05:55:29;18.80;99.90
17954;DHT22;9102;53.548;9.926;2023-09-07T05:57:58;18.80;99.90
17954;DHT22;9102;53.548;9.926;2023-09-07T06:00:24;18.80;99.90
17954;DHT22;9102;53.548;9.926;2023-09-07T06:02:51;18.90;99.90
17954;DHT22;9102;53.548;9.926;2023-09-07T06:05:18;18.90;99.90
17954;DHT22;9102;53.548;9.926;2023-09-07T06:07:45;19.00;99.90
17954;DHT22;9102;53.548;9.926;2023-09-07T06:10:12;18.90;99.90
17954;DHT22;9102;53.548;9.926;2023-09-07T06:12:39;19.00;99.90
17954;DHT22;9102;53.548;9.926;2023-09-07T06:15:08;19.00;99.90
17954;DHT22;9102;53.548;9.926;2023-09-07T06:17:36;19.00;99.90
17954;DHT22;9102;53.548;9.926;2023-09-07T06:20:03;19.10;99.90
17954;DHT22;9102;53.548;9.926;2023-09-07T06:22:31;19.10;99.90
17954;DHT22;9102;53.548;9.926;2023-09-07T06:24:58;19.10;99.90
17954;DHT22;9102;53.548;9.926;2023-09-07T06:27:24;19.10;99.90
17954;DHT22;9102;53.548;9.926;2023-09-07T06:29:51;19.30;99.90
17954;DHT22;9102;53.548;9.926;2023-09-07T06:32:20;19.20;99.90
17954;DHT22;9102;53.548;9.926;2023-09-07T06:34:46;19.20;99.90
17954;DHT22;9102;53.548;9.926;2023-09-07T06:37:13;19.30;99.90
17954;DHT22;9102;53.548;9.926;2023-09-07T06:39:40;19.30;99.90
17954;DHT22;9102;53.548;9.926;2023-09-07T06:42:09;19.40;99.90
17954;DHT22;9102;53.548;9.926;2023-09-07T06:44:36;19.40;99.90
17954;DHT22;9102;53.548;9.926;2023-09-07T06:47:03;19.50;99.90
17954;DHT22;9102;53.548;9.926;2023-09-07T06:49:31;19.50;99.90
17954;DHT22;9102;53.548;9.926;2023-09-07T06:51:58;19.60;99.90
17954;DHT22;9102;53.548;9.926;2023-09-07T06:54:27;19.70;99.90
17954;DHT22;9102;53.548;9.926;2023-09-07T06:56:54;19.70;99.90
17954;DHT22;9102;53.548;9.926;2023-09-07T06:59:21;19.80;99.90
17954;DHT22;9102;53.548;9.926;2023-09-07T07:01:47;19.90;99.90
17954;DHT22;9102;53.548;9.926;2023-09-07T07:04:14;19.90;99.90
17954;DHT22;9102;53.548;9.926;2023-09-07T07:06:42;20.00;99.90
17954;DHT22;9102;53.548;9.926;2023-09-07T07:09:10;20.00;99.90
17954;DHT22;9102;53.548;9.926;2023-09-07T07:11:36;20.00;99.90
17954;DHT22;9102;53.548;9.926;2023-09-07T07:14:04;20.20;99.90
17954;DHT22;9102;53.548;9.926;2023-09-07T07:16:31;20.20;99.90
17954;DHT22;9102;53.548;9.926;2023-09-07T07:18:58;20.20;99.90
17954;DHT22;9102;53.548;9.926;2023-09-07T07:21:25;20.30;99.90
17954;DHT22;9102;53.548;9.926;2023-09-07T07:23:53;20.40;99.90
17954;DHT22;9102;53.548;9.926;2023-09-07T07:26:19;20.50;99.90
17954;DHT22;9102;53.548;9.926;2023-09-07T07:28:46;20.50;99.90
17954;DHT22;9102;53.548;9.926;2023-09-07T07:31:13;20.60;99.90
17954;DHT22;9102;53.548;9.926;2023-09-07T07:33:40;20.60;99.90
17954;DHT22;9102;53.548;9.926;2023-09-07T07:36:07;20.60;99.90
17954;DHT22;9102;53.548;9.926;2023-09-07T07:38:34;20.70;99.90
17954;DHT22;9102;53.548;9.926;2023-09-07T07:41:02;20.70;99.90
17954;DHT22;9102;53.548;9.926;2023-09-07T07:43:29;20.80;99.90
17954;DHT22;9102;53.548;9.926;2023-09-07T07:45:56;20.90;99.90
17954;DHT22;9102;53.548;9.926;2023-09-07T07:48:23;20.90;99.90
17954;DHT22;9102;53.548;9.926;2023-09-07T07:50:49;21.00;99.90
17954;DHT22;9102;53.548;9.926;2023-09-07T07:53:16;21.00;99.90
17954;DHT22;9102;53.548;9.926;2023-09-07T07:55:43;21.00;99.90
17954;DHT22;9102;53.548;9.926;2023-09-07T07:58:11;21.10;99.90
17954;DHT22;9102;53.548;9.926;2023-09-07T08:00:38;21.20;99.90
17954;DHT22;9102;53.548;9.926;2023-09-07T08:03:06;21.30;99.90
17954;DHT22;9102;53.548;9.926;2023-09-07T08:05:34;21.40;99.90
17954;DHT22;9102;53.548;9.926;2023-09-07T08:08:05;21.50;99.90
17954;DHT22;9102;53.548;9.926;2023-09-07T08:10:33;21.60;99.90
17954;DHT22;9102;53.548;9.926;2023-09-07T08:13:02;21.60;99.90
17954;DHT22;9102;53.548;9.926;2023-09-07T08:15:31;21.70;99.90
17954;DHT22;9102;53.548;9.926;2023-09-07T08:17:58;21.80;99.90
17954;DHT22;9102;53.548;9.926;2023-09-07T08:20:26;21.90;99.90
17954;DHT22;9102;53.548;9.926;2023-09-07T08:22:53;21.90;99.90
17954;DHT22;9102;53.548;9.926;2023-09-07T08:25:20;22.00;99.90
17954;DHT22;9102;53.548;9.926;2023-09-07T08:27:47;22.10;99.90
17954;DHT22;9102;53.548;9.926;2023-09-07T08:30:16;22.20;99.90
17954;DHT22;9102;53.548;9.926;2023-09-07T08:32:45;22.20;99.90
17954;DHT22;9102;53.548;9.926;2023-09-07T08:35:12;22.40;99.90
17954;DHT22;9102;53.548;9.926;2023-09-07T08:37:40;22.40;99.90
17954;DHT22;9102;53.548;9.926;2023-09-07T08:40:08;22.50;99.90
17954;DHT22;9102;53.548;9.926;2023-09-07T08:42:37;22.60;99.90
17954;DHT22;9102;53.548;9.926;2023-09-07T08:45:05;22.60;99.90
17954;DHT22;9102;53.548;9.926;2023-09-07T08:47:35;22.70;99.90
17954;DHT22;9102;53.548;9.926;2023-09-07T08:50:05;22.80;99.90
17954;DHT22;9102;53.548;9.926;2023-09-07T08:52:33;22.90;99.90
17954;DHT22;9102;53.548;9.926;2023-09-07T08:55:01;22.90;99.90
17954;DHT22;9102;53.548;9.926;2023-09-07T08:57:30;23.00;99.90
17954;DHT22;9102;53.548;9.926;2023-09-07T08:59:58;23.10;99.90
17954;DHT22;9102;53.548;9.926;2023-09-07T09:02:24;23.20;99.90
17954;DHT22;9102;53.548;9.926;2023-09-07T09:04:51;23.30;99.90
17954;DHT22;9102;53.548;9.926;2023-09-07T09:07:20;23.50;99.90
17954;DHT22;9102;53.548;9.926;2023-09-07T09:09:47;23.50;99.90
17954;DHT22;9102;53.548;9.926;2023-09-07T09:12:15;23.60;99.90
17954;DHT22;9102;53.548;9.926;2023-09-07T09:14:42;23.60;99.90
17954;DHT22;9102;53.548;9.926;2023-09-07T09:17:14;23.70;99.90
17954;DHT22;9102;53.548;9.926;2023-09-07T09:19:42;23.80;99.90
17954;DHT22;9102;53.548;9.926;2023-09-07T09:22:09;23.90;99.90
17954;DHT22;9102;53.548;9.926;2023-09-07T09:24:38;23.90;99.90
17954;DHT22;9102;53.548;9.926;2023-09-07T09:27:04;23.90;99.90
17954;DHT22;9102;53.548;9.926;2023-09-07T09:29:32;24.00;99.90
17954;DHT22;9102;53.548;9.926;2023-09-07T09:32:00;24.10;99.90
17954;DHT22;9102;53.548;9.926;2023-09-07T09:34:32;24.20;99.90
17954;DHT22;9102;53.548;9.926;2023-09-07T09:36:59;24.40;99.90
17954;DHT22;9102;53.548;9.926;2023-09-07T09:39:26;24.40;99.90
17954;DHT22;9102;53.548;9.926;2023-09-07T09:41:55;24.50;99.90
17954;DHT22;9102;53.548;9.926;2023-09-07T09:44:23;24.60;99.90
17954;DHT22;9102;53.548;9.926;2023-09-07T09:46:52;24.60;99.90
17954;DHT22;9102;53.548;9.926;2023-09-07T09:49:20;24.60;99.90
17954;DHT22;9102;53.548;9.926;2023-09-07T09:51:48;24.70;99.90
17954;DHT22;9102;53.548;9.926;2023-09-07T09:54:16;24.80;99.90
17954;DHT22;9102;53.548;9.926;2023-09-07T09:56:43;24.90;99.90
17954;DHT22;9102;53.548;9.926;2023-09-07T09:59:13;25.00;99.90
17954;DHT22;9102;53.548;9.926;2023-09-07T10:01:43;25.10;99.90
17954;DHT22;9102;53.548;9.926;2023-09-07T10:04:12;25.20;99.90
17954;DHT22;9102;53.548;9.926;2023-09-07T10:06:50;25.20;99.90
17954;DHT22;9102;53.548;9.926;2023-09-07T10:09:17;25.30;99.90
17954;DHT22;9102;53.548;9.926;2023-09-07T10:11:51;25.30;99.90
17954;DHT22;9102;53.548;9.926;2023-09-07T10:14:20;25.40;99.90
17954;DHT22;9102;53.548;9.926;2023-09-07T10:16:48;25.50;99.90
17954;DHT22;9102;53.548;9.926;2023-09-07T10:19:18;25.60;99.90
17954;DHT22;9102;53.548;9.926;2023-09-07T10:21:45;25.60;99.90
17954;DHT22;9102;53.548;9.926;2023-09-07T10:24:23;25.60;99.90
17954;DHT22;9102;53.548;9.926;2023-09-07T10:26:56;25.70;99.90
17954;DHT22;9102;53.548;9.926;2023-09-07T10:29:25;25.70;99.90
17954;DHT22;9102;53.548;9.926;2023-09-07T10:31:52;25.70;99.90
17954;DHT22;9102;53.548;9.926;2023-09-07T10:34:19;25.80;99.90
17954;DHT22;9102;53.548;9.926;2023-09-07T10:36:47;25.90;99.90
17954;DHT22;9102;53.548;9.926;2023-09-07T10:39:16;26.00;99.90
17954;DHT22;9102;53.548;9.926;2023-09-07T10:41:44;26.10;99.90
17954;DHT22;9102;53.548;9.926;2023-09-07T10:44:11;26.10;99.90
17954;DHT22;9102;53.548;9.926;2023-09-07T10:46:40;26.10;99.90
17954;DHT22;9102;53.548;9.926;2023-09-07T10:49:08;26.10;99.90
17954;DHT22;9102;53.548;9.926;2023-09-07T10:51:41;26.10;99.90
17954;DHT22;9102;53.548;9.926;2023-09-07T10:54:15;26.10;99.90
17954;DHT22;9102;53.548;9.926;2023-09-07T10:56:43;26.10;99.90
17954;DHT22;9102;53.548;9.926;2023-09-07T10:59:10;26.20;99.90
17954;DHT22;9102;53.548;9.926;2023-09-07T11:01:37;26.40;99.90
17954;DHT22;9102;53.548;9.926;2023-09-07T11:04:06;26.40;99.90
17954;DHT22;9102;53.548;9.926;2023-09-07T11:06:34;26.40;99.90
17954;DHT22;9102;53.548;9.926;2023-09-07T11:09:02;26.40;99.90
17954;DHT22;9102;53.548;9.926;2023-09-07T11:11:34;26.40;99.90
17954;DHT22;9102;53.548;9.926;2023-09-07T11:14:02;26.50;99.90
17954;DHT22;9102;53.548;9.926;2023-09-07T11:16:30;26.50;99.90
17954;DHT22;9102;53.548;9.926;2023-09-07T11:18:57;26.60;99.00
17954;DHT22;9102;53.548;9.926;2023-09-07T11:21:27;26.60;98.50
17954;DHT22;9102;53.548;9.926;2023-09-07T11:23:53;26.50;98.30
17954;DHT22;9102;53.548;9.926;2023-09-07T11:26:20;26.50;97.50
17954;DHT22;9102;53.548;9.926;2023-09-07T11:28:48;26.60;98.10
17954;DHT22;9102;53.548;9.926;2023-09-07T11:31:19;26.60;98.10
17954;DHT22;9102;53.548;9.926;2023-09-07T11:33:47;26.60;97.10
17954;DHT22;9102;53.548;9.926;2023-09-07T11:36:14;26.60;97.10
17954;DHT22;9102;53.548;9.926;2023-09-07T11:38:43;26.70;96.90
17954;DHT22;9102;53.548;9.926;2023-09-07T11:41:10;26.80;96.00
17954;DHT22;9102;53.548;9.926;2023-09-07T11:43:37;26.80;95.20
17954;DHT22;9102;53.548;9.926;2023-09-07T11:46:05;27.20;95.40
17954;DHT22;9102;53.548;9.926;2023-09-07T11:48:32;27.90;94.20
17954;DHT22;9102;53.548;9.926;2023-09-07T11:51:00;28.70;92.20
17954;DHT22;9102;53.548;9.926;2023-09-07T11:53:26;28.60;91.20
17954;DHT22;9102;53.548;9.926;2023-09-07T11:55:55;28.10;91.10
17954;DHT22;9102;53.548;9.926;2023-09-07T11:58:22;28.00;91.40
17954;DHT22;9102;53.548;9.926;2023-09-07T12:00:50;28.00;90.80
17954;DHT22;9102;53.548;9.926;2023-09-07T12:03:17;28.50;90.20
17954;DHT22;9102;53.548;9.926;2023-09-07T12:05:44;28.90;90.30
17954;DHT22;9102;53.548;9.926;2023-09-07T12:08:11;28.90;89.10
17954;DHT22;9102;53.548;9.926;2023-09-07T12:10:38;28.70;88.20
17954;DHT22;9102;53.548;9.926;2023-09-07T12:13:06;28.20;88.60
17954;DHT22;9102;53.548;9.926;2023-09-07T12:15:33;27.70;89.80
17954;DHT22;9102;53.548;9.926;2023-09-07T12:18:00;27.40;90.40
17954;DHT22;9102;53.548;9.926;2023-09-07T12:20:27;27.20;90.20
17954;DHT22;9102;53.548;9.926;2023-09-07T12:22:54;27.10;90.40
17954;DHT22;9102;53.548;9.926;2023-09-07T12:25:21;27.10;91.10
17954;DHT22;9102;53.548;9.926;2023-09-07T12:27:48;27.10;91.30
17954;DHT22;9102;53.548;9.926;2023-09-07T12:30:17;27.10;91.40
17954;DHT22;9102;53.548;9.926;2023-09-07T12:32:45;27.00;92.10
17954;DHT22;9102;53.548;9.926;2023-09-07T12:35:12;27.10;91.20
17954;DHT22;9102;53.548;9.926;2023-09-07T12:37:40;27.10;91.30
17954;DHT22;9102;53.548;9.926;2023-09-07T12:40:08;27.10;90.50
17954;DHT22;9102;53.548;9.926;2023-09-07T12:42:39;27.10;89.80
17954;DHT22;9102;53.548;9.926;2023-09-07T12:45:07;27.20;89.20
17954;DHT22;9102;53.548;9.926;2023-09-07T12:47:36;27.20;87.50
17954;DHT22;9102;53.548;9.926;2023-09-07T12:50:03;27.10;87.20
17954;DHT22;9102;53.548;9.926;2023-09-07T12:52:30;27.20;87.30
17954;DHT22;9102;53.548;9.926;2023-09-07T12:54:57;27.30;87.50
17954;DHT22;9102;53.548;9.926;2023-09-07T12:57:24;27.30;86.80
17954;DHT22;9102;53.548;9.926;2023-09-07T12:59:51;27.30;86.00
17954;DHT22;9102;53.548;9.926;2023-09-07T13:02:17;27.30;84.90
17954;DHT22;9102;53.548;9.926;2023-09-07T13:04:45;27.40;85.60
17954;DHT22;9102;53.548;9.926;2023-09-07T13:07:13;27.50;85.30
17954;DHT22;9102;53.548;9.926;2023-09-07T13:09:43;27.40;83.70
17954;DHT22;9102;53.548;9.926;2023-09-07T13:12:09;27.50;84.70
17954;DHT22;9102;53.548;9.926;2023-09-07T13:14:36;27.50;84.00
17954;DHT22;9102;53.548;9.926;2023-09-07T13:17:03;27.40;84.20
17954;DHT22;9102;53.548;9.926;2023-09-07T13:19:30;27.40;84.80
17954;DHT22;9102;53.548;9.926;2023-09-07T13:21:58;27.30;85.10
17954;DHT22;9102;53.548;9.926;2023-09-07T13:24:25;27.40;84.80
17954;DHT22;9102;53.548;9.926;2023-09-07T13:26:52;27.40;84.70
17954;DHT22;9102;53.548;9.926;2023-09-07T13:29:19;27.40;86.10
17954;DHT22;9102;53.548;9.926;2023-09-07T13:31:45;27.30;83.40
17954;DHT22;9102;53.548;9.926;2023-09-07T13:34:12;27.30;84.00
17954;DHT22;9102;53.548;9.926;2023-09-07T13:36:39;27.40;83.40
17954;DHT22;9102;53.548;9.926;2023-09-07T13:39:07;27.40;81.10
17954;DHT22;9102;53.548;9.926;2023-09-07T13:41:34;27.50;80.30
17954;DHT22;9102;53.548;9.926;2023-09-07T13:44:01;27.40;77.80
17954;DHT22;9102;53.548;9.926;2023-09-07T13:46:28;27.40;78.20
17954;DHT22;9102;53.548;9.926;2023-09-07T13:48:55;27.40;78.40
17954;DHT22;9102;53.548;9.926;2023-09-07T13:51:21;27.40;76.30
17954;DHT22;9102;53.548;9.926;2023-09-07T13:53:49;27.40;76.10
17954;DHT22;9102;53.548;9.926;2023-09-07T13:56:18;27.40;76.60
17954;DHT22;9102;53.548;9.926;2023-09-07T13:58:44;27.40;75.50
17954;DHT22;9102;53.548;9.926;2023-09-07T14:01:14;27.30;75.50
17954;DHT22;9102;53.548;9.926;2023-09-07T14:03:41;27.40;76.60
17954;DHT22;9102;53.548;9.926;2023-09-07T14:06:07;27.40;77.70
17954;DHT22;9102;53.548;9.926;2023-09-07T14:08:34;27.50;78.40
17954;DHT22;9102;53.548;9.926;2023-09-07T14:11:01;27.40;79.10
17954;DHT22;9102;53.548;9.926;2023-09-07T14:13:31;27.40;77.90
17954;DHT22;9102;53.548;9.926;2023-09-07T14:16:02;27.50;75.70
17954;DHT22;9102;53.548;9.926;2023-09-07T14:18:29;27.50;75.50
17954;DHT22;9102;53.548;9.926;2023-09-07T14:20:56;27.50;75.20
17954;DHT22;9102;53.548;9.926;2023-09-07T14:23:24;27.40;75.40
17954;DHT22;9102;53.548;9.926;2023-09-07T14:25:51;27.30;73.70
17954;DHT22;9102;53.548;9.926;2023-09-07T14:28:20;27.40;74.70
17954;DHT22;9102;53.548;9.926;2023-09-07T14:30:48;27.40;74.00
17954;DHT22;9102;53.548;9.926;2023-09-07T14:33:15;27.40;73.50
17954;DHT22;9102;53.548;9.926;2023-09-07T14:35:42;27.40;74.00
17954;DHT22;9102;53.548;9.926;2023-09-07T14:38:09;27.40;74.00
17954;DHT22;9102;53.548;9.926;2023-09-07T14:40:35;27.40;73.00
17954;DHT22;9102;53.548;9.926;2023-09-07T14:43:04;27.40;73.20
17954;DHT22;9102;53.548;9.926;2023-09-07T14:45:31;27.30;72.00
17954;DHT22;9102;53.548;9.926;2023-09-07T14:48:00;27.30;72.40
17954;DHT22;9102;53.548;9.926;2023-09-07T14:50:27;27.30;72.90
17954;DHT22;9102;53.548;9.926;2023-09-07T14:52:55;27.30;73.90
17954;DHT22;9102;53.548;9.926;2023-09-07T14:55:21;27.30;74.40
17954;DHT22;9102;53.548;9.926;2023-09-07T14:57:48;27.30;74.30
17954;DHT22;9102;53.548;9.926;2023-09-07T15:00:15;27.30;74.40
17954;DHT22;9102;53.548;9.926;2023-09-07T15:02:42;27.30;74.00
17954;DHT22;9102;53.548;9.926;2023-09-07T15:05:10;27.20;75.00
17954;DHT22;9102;53.548;9.926;2023-09-07T15:07:37;27.20;75.00
17954;DHT22;9102;53.548;9.926;2023-09-07T15:10:04;27.20;75.20
17954;DHT22;9102;53.548;9.926;2023-09-07T15:12:31;27.10;75.10
17954;DHT22;9102;53.548;9.926;2023-09-07T15:14:58;27.10;75.60
17954;DHT22;9102;53.548;9.926;2023-09-07T15:17:25;27.10;76.70
17954;DHT22;9102;53.548;9.926;2023-09-07T15:19:52;27.00;76.20
17954;DHT22;9102;53.548;9.926;2023-09-07T15:22:20;27.10;77.40
17954;DHT22;9102;53.548;9.926;2023-09-07T15:24:47;27.00;76.40
17954;DHT22;9102;53.548;9.926;2023-09-07T15:27:13;27.00;77.00
17954;DHT22;9102;53.548;9.926;2023-09-07T15:29:40;27.00;77.20
17954;DHT22;9102;53.548;9.926;2023-09-07T15:32:07;27.00;77.90
17954;DHT22;9102;53.548;9.926;2023-09-07T15:34:34;27.00;77.20
17954;DHT22;9102;53.548;9.926;2023-09-07T15:37:03;27.00;78.70
17954;DHT22;9102;53.548;9.926;2023-09-07T15:39:31;26.90;78.30
17954;DHT22;9102;53.548;9.926;2023-09-07T15:41:58;26.90;77.70
17954;DHT22;9102;53.548;9.926;2023-09-07T15:44:25;26.80;77.50
17954;DHT22;9102;53.548;9.926;2023-09-07T15:46:53;26.80;77.20